Time;durP1;ratioP1;P1;durP2;ratioP2;P2;SDS_P1;SDS_P2;PMS_P1;PMS_P2;Temp;Humidity;BMP_temperature;BMP_pressure;BME280_temperature;BME280_humidity;BME280_pressure;Samples;Min_cycle;Max_cycle;Signal;HPM_P1;HPM_P2
2023/03/24 01:35:30;;;;;;;16.02;10.80;;;15.10;87.90;;;;;;5057197;22;21151;-74
2023/03/24 01:37:57;;;;;;;19.48;10.75;;;15.10;88.00;;;;;;5071533;28;20415;-75
2023/03/24 01:40:29;;;;;;;17.83;10.85;;;15.10;88.00;;;;;;5071902;28;20454;-75
2023/03/24 01:42:56;;;;;;;17.30;12.05;;;15.20;88.60;;;;;;5070592;28;20036;-74
2023/03/24 01:45:40;;;;;;;16.42;10.98;;;15.20;88.40;;;;;;5070345;28;20077;-75
2023/03/24 01:48:08;;;;;;;;;;;15.20;88.60;;;;;;5054340;28;20105;-75
2023/03/24 01:50:34;;;;;;;16.45;11.07;;;15.20;89.50;;;;;;5071848;28;19947;-74
2023/03/24 01:53:00;;;;;;;17.17;11.20;;;15.20;88.80;;;;;;5073814;28;20056;-74
2023/03/24 01:55:28;;;;;;;19.65;11.90;;;15.20;88.80;;;;;;5057779;28;20036;-74
2023/03/24 01:57:59;;;;;;;20.77;12.30;;;15.20;89.30;;;;;;5075009;28;20081;-74
2023/03/24 02:00:26;;;;;;;18.60;11.55;;;15.20;89.40;;;;;;5075010;28;20029;-74
2023/03/24 02:02:59;;;;;;;18.92;11.27;;;15.20;89.40;;;;;;5075218;28;20041;-74
2023/03/24 02:05:28;;;;;;;;;;;15.20;89.40;;;;;;5075216;28;20392;-73
2023/03/24 02:08:25;;;;;;;16.02;10.27;;;15.20;89.50;;;;;;5075514;28;20299;-75
2023/03/24 02:10:53;;;;;;;18.23;11.10;;;15.20;89.30;;;;;;5075136;28;20510;-75
2023/03/24 02:13:19;;;;;;;16.40;11.07;;;15.20;89.40;;;;;;5074813;28;20111;-75
2023/03/24 02:15:54;;;;;;;16.83;11.82;;;15.20;89.30;;;;;;5074830;28;20020;-75
2023/03/24 02:18:55;;;;;;;16.25;11.50;;;15.10;89.20;;;;;;5074981;28;20036;-75
2023/03/24 02:21:32;;;;;;;16.08;11.00;;;15.10;89.70;;;;;;5033455;28;20068;-73
2023/03/24 02:24:24;;;;;;;16.35;10.98;;;15.10;89.40;;;;;;5074947;28;20502;-75
2023/03/24 02:26:58;;;;;;;16.00;10.43;;;15.10;89.70;;;;;;5074542;28;20032;-74
2023/03/24 02:30:00;;;;;;;16.13;11.13;;;15.10;89.40;;;;;;5074439;28;20111;-74
2023/03/24 02:32:47;;;;;;;17.02;10.07;;;15.10;89.30;;;;;;5074261;28;20491;-75
2023/03/24 02:35:34;;;;;;;15.23;9.93;;;15.10;89.40;;;;;;5074237;28;20036;-74
2023/03/24 02:38:06;;;;;;;14.35;10.63;;;15.10;89.50;;;;;;5074556;28;20167;-75
2023/03/24 02:41:07;;;;;;;16.13;10.88;;;15.10;89.60;;;;;;5074503;28;20033;-76
2023/03/24 02:43:52;;;;;;;12.65;9.82;;;15.20;89.40;;;;;;5043208;28;20120;-75
2023/03/24 02:46:26;;;;;;;14.00;10.40;;;15.20;89.30;;;;;;5074052;28;20041;-75
2023/03/24 02:49:15;;;;;;;12.93;10.20;;;15.20;89.60;;;;;;5074513;28;20083;-75
2023/03/24 02:51:49;;;;;;;14.38;10.45;;;15.20;89.40;;;;;;5056437;28;20028;-75
2023/03/24 02:54:38;;;;;;;17.30;10.27;;;15.20;89.30;;;;;;5074775;28;20058;-75
2023/03/24 02:57:04;;;;;;;13.38;9.98;;;15.20;89.30;;;;;;5058875;28;20033;-75
2023/03/24 02:59:43;;;;;;;14.65;10.32;;;15.20;89.40;;;;;;5074229;28;20063;-74
2023/03/24 03:02:16;;;;;;;15.63;10.75;;;15.20;89.20;;;;;;5074319;28;20361;-75
2023/03/24 03:04:53;;;;;;;14.57;10.10;;;15.20;89.50;;;;;;5072794;28;20036;-74
2023/03/24 03:07:24;;;;;;;15.88;10.02;;;15.20;89.50;;;;;;5072170;28;20075;-75
2023/03/24 03:10:19;;;;;;;13.50;9.77;;;15.20;89.70;;;;;;5073691;28;20055;-74
2023/03/24 03:12:49;;;;;;;15.00;9.35;;;15.20;89.40;;;;;;5073860;28;20040;-74
2023/03/24 03:15:33;;;;;;;14.85;9.60;;;15.20;89.50;;;;;;5073803;28;20035;-75
2023/03/24 03:18:04;;;;;;;15.30;10.45;;;15.30;89.40;;;;;;5073513;28;20032;-75
2023/03/24 03:20:36;;;;;;;14.05;10.02;;;15.30;89.40;;;;;;5055649;28;20036;-74
2023/03/24 03:23:07;;;;;;;20.92;11.02;;;15.30;89.40;;;;;;5073710;28;20051;-74
2023/03/24 03:25:41;;;;;;;14.73;10.65;;;15.30;89.20;;;;;;5073496;28;20484;-73
2023/03/24 03:28:09;;;;;;;15.05;9.57;;;15.30;89.50;;;;;;5073467;28;20044;-74
2023/03/24 03:30:39;;;;;;;15.40;10.48;;;15.30;89.60;;;;;;5073341;28;20460;-74
2023/03/24 03:33:30;;;;;;;14.70;10.00;;;15.30;89.70;;;;;;5055499;28;20423;-75
2023/03/24 03:36:09;;;;;;;14.43;9.93;;;15.30;89.50;;;;;;5073435;28;20055;-75
2023/03/24 03:39:14;;;;;;;13.27;8.63;;;15.30;89.50;;;;;;5073363;28;20033;-73
2023/03/24 03:41:42;;;;;;;14.55;9.10;;;15.20;89.20;;;;;;5023633;28;20080;-73
2023/03/24 03:44:08;;;;;;;15.10;10.02;;;15.20;89.60;;;;;;5055502;28;20407;-74
2023/03/24 03:46:35;;;;;;;17.90;10.23;;;15.20;89.60;;;;;;5072951;28;20048;-74
2023/03/24 03:49:02;;;;;;;15.48;9.73;;;15.20;89.50;;;;;;5072990;28;20042;-73
2023/03/24 03:51:28;;;;;;;12.45;9.63;;;15.20;89.60;;;;;;5072911;28;20036;-75
2023/03/24 03:53:57;;;;;;;13.52;9.63;;;15.20;89.60;;;;;;5072799;28;20025;-75
2023/03/24 03:56:27;;;;;;;15.13;9.60;;;15.20;89.60;;;;;;5073205;28;20033;-73
2023/03/24 03:58:53;;;;;;;12.38;9.40;;;15.30;90.00;;;;;;5072927;28;20388;-73
2023/03/24 04:01:26;;;;;;;14.13;9.00;;;15.30;89.40;;;;;;5073087;28;20037;-74
2023/03/24 04:04:03;;;;;;;12.90;9.18;;;15.30;89.30;;;;;;5072521;28;20095;-74
2023/03/24 04:06:52;;;;;;;11.65;9.18;;;15.30;88.80;;;;;;5073009;28;20048;-74
2023/03/24 04:09:36;;;;;;;12.30;9.57;;;15.30;88.50;;;;;;5072603;28;20037;-73
2023/03/24 04:12:05;;;;;;;13.02;9.07;;;15.40;88.80;;;;;;5073065;28;20419;-74
2023/03/24 04:14:42;;;;;;;12.48;8.90;;;15.30;88.60;;;;;;5072591;28;20070;-75
2023/03/24 04:17:23;;;;;;;14.20;8.98;;;15.30;88.40;;;;;;5072725;28;20095;-74
2023/03/24 04:20:04;;;;;;;12.00;8.82;;;15.40;88.60;;;;;;5072706;28;20047;-74
2023/03/24 04:23:01;;;;;;;13.05;8.00;;;15.40;88.80;;;;;;5054697;28;20488;-75
2023/03/24 04:25:35;;;;;;;11.30;8.32;;;15.40;88.50;;;;;;5073086;28;20052;-75
2023/03/24 04:28:37;;;;;;;11.80;8.57;;;15.40;88.60;;;;;;5072527;28;20056;-74
2023/03/24 04:31:24;;;;;;;14.30;9.60;;;15.40;88.50;;;;;;5072359;28;20043;-74
2023/03/24 04:34:02;;;;;;;12.27;8.57;;;15.40;88.30;;;;;;5062094;28;20036;-73
2023/03/24 04:36:33;;;;;;;15.57;9.60;;;15.40;88.20;;;;;;5063959;28;20036;-74
2023/03/24 04:39:00;;;;;;;14.10;8.52;;;15.30;88.20;;;;;;5072639;28;20508;-74
2023/03/24 04:41:29;;;;;;;12.38;8.38;;;15.30;88.20;;;;;;5072454;28;20098;-74
2023/03/24 04:43:56;;;;;;;12.23;8.35;;;15.30;88.40;;;;;;5072133;28;20063;-75
2023/03/24 04:46:23;;;;;;;11.68;8.00;;;15.30;88.30;;;;;;5072482;28;20392;-74
2023/03/24 04:48:49;;;;;;;10.45;6.45;;;15.30;88.20;;;;;;5072538;28;20043;-74
2023/03/24 04:51:18;;;;;;;11.35;7.03;;;15.30;88.10;;;;;;5072036;28;20525;-74
2023/03/24 04:53:44;;;;;;;9.45;6.32;;;15.40;88.00;;;;;;5071959;28;20044;-74
2023/03/24 04:56:34;;;;;;;10.43;6.75;;;15.40;87.80;;;;;;5072050;28;20111;-75
2023/03/24 04:59:01;;;;;;;8.98;6.93;;;15.30;88.10;;;;;;5072280;28;20028;-74
2023/03/24 05:01:30;;;;;;;13.55;7.05;;;15.40;87.90;;;;;;5072209;28;20388;-74
2023/03/24 05:03:57;;;;;;;13.77;6.40;;;15.30;87.70;;;;;;5072237;28;20111;-75
2023/03/24 05:06:23;;;;;;;11.23;7.03;;;15.30;87.70;;;;;;5071837;28;20496;-74
2023/03/24 05:08:51;;;;;;;13.27;7.60;;;15.30;87.60;;;;;;5072261;28;20071;-75
2023/03/24 05:11:18;;;;;;;9.20;7.32;;;15.30;87.60;;;;;;5072339;28;20032;-74
2023/03/24 05:13:44;;;;;;;12.40;7.25;;;15.30;87.40;;;;;;5072236;28;20037;-74
2023/03/24 05:16:10;;;;;;;9.77;6.75;;;15.30;87.60;;;;;;5072092;28;20174;-75
2023/03/24 05:18:36;;;;;;;10.75;6.55;;;15.40;87.80;;;;;;5071924;28;20071;-76
2023/03/24 05:21:01;;;;;;;13.27;7.57;;;15.40;87.30;;;;;;5072002;28;20115;-74
2023/03/24 05:23:27;;;;;;;14.63;8.13;;;15.40;87.20;;;;;;5072066;28;20021;-75
2023/03/24 05:25:53;;;;;;;10.40;7.68;;;15.40;87.20;;;;;;5071919;28;20400;-75
2023/03/24 05:28:18;;;;;;;14.80;8.68;;;15.40;86.90;;;;;;5056208;28;20048;-74
2023/03/24 05:30:44;;;;;;;21.42;11.00;;;15.40;86.80;;;;;;5075480;28;20037;-75
2023/03/24 05:33:10;;;;;;;15.10;10.27;;;15.30;86.50;;;;;;5075411;28;20426;-74
2023/03/24 05:35:35;;;;;;;15.73;11.00;;;15.20;86.30;;;;;;5040778;28;20068;-74
2023/03/24 05:38:01;;;;;;;13.20;10.35;;;15.10;86.00;;;;;;5075562;28;20384;-74
2023/03/24 05:40:27;;;;;;;17.23;11.88;;;15.10;85.70;;;;;;5075614;28;20086;-76
2023/03/24 05:42:52;;;;;;;18.02;12.65;;;15.10;85.50;;;;;;5067535;28;20037;-75
2023/03/24 05:45:18;;;;;;;16.95;12.98;;;15.00;85.00;;;;;;5075174;28;20075;-76
2023/03/24 05:47:46;;;;;;;20.17;13.25;;;14.90;84.30;;;;;;5075692;28;20426;-76
2023/03/24 05:50:12;;;;;;;20.10;12.60;;;14.80;84.00;;;;;;5075292;28;20035;-74
2023/03/24 05:52:38;;;;;;;18.67;12.93;;;14.70;83.60;;;;;;5075430;28;20100;-76
2023/03/24 05:55:04;;;;;;;20.85;13.80;;;14.60;83.30;;;;;;5075482;28;20110;-75
2023/03/24 05:57:30;;;;;;;19.25;13.43;;;14.60;83.30;;;;;;5075505;28;20029;-75
2023/03/24 05:59:56;;;;;;;21.02;14.45;;;14.60;82.90;;;;;;5074804;28;20047;-74
2023/03/24 06:02:23;;;;;;;17.08;13.25;;;14.50;82.60;;;;;;5075147;28;20058;-75
2023/03/24 06:04:50;;;;;;;24.90;13.68;;;14.50;82.50;;;;;;5075091;28;20524;-74
2023/03/24 06:07:16;;;;;;;22.75;14.15;;;14.40;82.10;;;;;;5075282;28;20128;-76
2023/03/24 06:09:45;;;;;;;18.73;14.48;;;14.40;81.90;;;;;;5075059;28;20442;-75
2023/03/24 06:12:12;;;;;;;20.90;13.73;;;14.50;82.00;;;;;;5075143;28;20416;-74
2023/03/24 06:14:39;;;;;;;22.45;14.60;;;14.60;81.60;;;;;;5075001;28;20476;-76
2023/03/24 06:17:06;;;;;;;21.42;13.63;;;14.70;81.40;;;;;;5066998;28;20039;-75
2023/03/24 06:19:33;;;;;;;22.35;14.15;;;14.80;81.00;;;;;;5056923;28;20166;-76
2023/03/24 06:22:01;;;;;;;22.05;15.23;;;14.90;80.80;;;;;;5075138;28;20064;-76
2023/03/24 06:24:28;;;;;;;25.75;14.98;;;15.10;80.70;;;;;;5074701;28;20025;-77
2023/03/24 06:27:01;;;;;;;20.15;14.45;;;15.30;80.30;;;;;;5056525;28;20401;-73
2023/03/24 06:29:30;;;;;;;21.67;13.57;;;15.40;79.80;;;;;;5074555;28;20337;-76
2023/03/24 06:31:56;;;;;;;20.13;13.05;;;15.50;79.70;;;;;;5074988;28;20036;-74
2023/03/24 06:34:23;;;;;;;21.42;13.93;;;15.60;79.70;;;;;;5066699;28;20033;-77
2023/03/24 06:36:49;;;;;;;24.02;12.43;;;15.80;79.60;;;;;;5074313;28;20080;-74
2023/03/24 06:39:15;;;;;;;20.95;13.90;;;15.90;79.40;;;;;;5073244;28;20381;-74
2023/03/24 06:41:41;;;;;;;26.58;14.27;;;16.00;78.70;;;;;;5066631;28;20118;-76
2023/03/24 06:44:06;;;;;;;18.40;13.45;;;16.10;78.60;;;;;;5074877;28;20496;-75
2023/03/24 06:46:32;;;;;;;24.55;13.85;;;16.20;78.30;;;;;;5066470;28;20053;-76
2023/03/24 06:48:58;;;;;;;22.88;13.95;;;16.40;78.50;;;;;;5055640;28;20449;-76
2023/03/24 06:51:24;;;;;;;21.95;13.73;;;16.50;77.40;;;;;;5060139;28;20045;-76
2023/03/24 06:53:49;;;;;;;22.52;16.05;;;16.50;77.40;;;;;;5074071;28;20044;-75
2023/03/24 06:56:17;;;;;;;19.15;14.02;;;16.60;77.80;;;;;;5073814;28;20036;-75
2023/03/24 06:58:43;;;;;;;22.13;13.45;;;16.70;77.20;;;;;;5073728;28;20021;-76
2023/03/24 07:01:10;;;;;;;25.88;14.60;;;16.80;77.00;;;;;;5074068;28;20119;-76
2023/03/24 07:03:36;;;;;;;20.05;15.05;;;17.00;76.60;;;;;;5073698;28;20025;-76
2023/03/24 07:06:02;;;;;;;25.48;14.80;;;17.10;76.10;;;;;;5073711;28;20131;-75
2023/03/24 07:08:28;;;;;;;20.77;14.30;;;17.10;75.70;;;;;;5073748;28;20476;-74
2023/03/24 07:10:53;;;;;;;22.67;14.95;;;17.20;75.70;;;;;;5073507;28;20031;-75
2023/03/24 07:13:19;;;;;;;19.73;14.82;;;17.30;75.40;;;;;;5065792;28;20064;-77
2023/03/24 07:15:45;;;;;;;18.70;14.88;;;17.40;75.30;;;;;;5073821;28;20111;-75
2023/03/24 07:18:12;;;;;;;17.92;14.13;;;17.40;75.10;;;;;;5073772;28;20040;-75
2023/03/24 07:20:38;;;;;;;21.52;13.63;;;17.50;75.30;;;;;;5073617;28;20032;-76
2023/03/24 07:23:04;;;;;;;19.42;13.65;;;17.60;75.40;;;;;;5069964;28;20069;-74
2023/03/24 07:25:30;;;;;;;22.48;14.68;;;17.70;75.40;;;;;;5068947;28;20071;-73
2023/03/24 07:27:56;;;;;;;22.30;17.48;;;17.70;74.60;;;;;;5075732;28;20040;-75
2023/03/24 07:30:22;;;;;;;23.90;14.38;;;17.80;74.60;;;;;;5067434;28;20044;-80
2023/03/24 07:32:48;;;;;;;20.25;14.40;;;17.90;74.20;;;;;;5063731;28;20063;-81
2023/03/24 23:21:42;;;;;;;19.35;14.50;;;15.60;80.20;;;;;;5069026;28;20251;-83
2023/03/24 23:24:08;;;;;;;18.10;13.95;;;15.50;80.70;;;;;;5077254;28;20062;-82
2023/03/24 23:26:34;;;;;;;16.48;14.00;;;15.50;80.70;;;;;;5074431;28;20033;-82
2023/03/24 23:28:59;;;;;;;18.13;14.32;;;15.40;80.90;;;;;;5075403;28;20100;-83
2023/03/24 23:31:26;;;;;;;17.27;14.35;;;15.40;81.00;;;;;;5065822;28;20488;-83
2023/03/24 23:33:55;;;;;;;15.13;12.90;;;15.40;81.00;;;;;;5076491;28;20553;-83
2023/03/24 23:36:24;;;;;;;15.13;12.15;;;15.50;81.00;;;;;;5082660;28;20029;-82
2023/03/24 23:38:52;;;;;;;17.27;13.32;;;15.50;81.00;;;;;;5077241;28;20036;-82
2023/03/24 23:41:18;;;;;;;17.02;14.25;;;15.50;81.00;;;;;;5059541;28;20036;-84
2023/03/24 23:43:48;;;;;;;18.27;13.13;;;15.50;81.00;;;;;;5074249;28;20029;-82
2023/03/24 23:46:14;;;;;;;16.63;12.43;;;15.50;80.90;;;;;;5055188;28;20134;-82
2023/03/24 23:48:39;;;;;;;17.80;12.90;;;15.50;80.90;;;;;;5053984;28;20072;-82
2023/03/24 23:51:06;;;;;;;19.02;14.00;;;15.50;80.80;;;;;;5054381;28;20067;-83
2023/03/24 23:53:33;;;;;;;16.10;13.75;;;15.50;80.50;;;;;;5060873;28;20029;-80
2023/03/24 23:56:00;;;;;;;19.65;13.32;;;15.50;80.40;;;;;;5067452;28;20087;-82
2023/03/24 23:58:29;;;;;;;17.23;13.90;;;15.50;80.70;;;;;;5071879;28;20092;-81
